sensor_id;sensor_type;location;lat;lon;timestamp;temperature;humidity
71291;DHT22;59073;51.994;4.448;2023-03-01T00:02:05;2.62;78.95
71291;DHT22;59073;51.994;4.448;2023-03-01T00:04:31;2.59;78.90
71291;DHT22;59073;51.994;4.448;2023-03-01T00:06:57;2.55;79.04
71291;DHT22;59073;51.994;4.448;2023-03-01T00:09:22;2.45;79.15
71291;DHT22;59073;51.994;4.448;2023-03-01T00:11:48;2.44;79.09
71291;DHT22;59073;51.994;4.448;2023-03-01T00:14:14;2.32;79.72
71291;DHT22;59073;51.994;4.448;2023-03-01T00:16:43;2.27;79.76
71291;DHT22;59073;51.994;4.448;2023-03-01T00:19:13;2.34;80.31
71291;DHT22;59073;51.994;4.448;2023-03-01T00:21:39;2.30;80.60
71291;DHT22;59073;51.994;4.448;2023-03-01T00:24:05;2.38;80.14
71291;DHT22;59073;51.994;4.448;2023-03-01T00:26:31;2.35;80.26
71291;DHT22;59073;51.994;4.448;2023-03-01T00:28:57;2.37;80.08
71291;DHT22;59073;51.994;4.448;2023-03-01T00:31:26;2.41;79.86
71291;DHT22;59073;51.994;4.448;2023-03-01T00:33:54;2.25;80.10
71291;DHT22;59073;51.994;4.448;2023-03-01T00:36:24;2.22;80.91
71291;DHT22;59073;51.994;4.448;2023-03-01T00:38:50;2.15;80.83
71291;DHT22;59073;51.994;4.448;2023-03-01T00:41:17;2.31;80.25
71291;DHT22;59073;51.994;4.448;2023-03-01T00:43:44;2.22;80.11
71291;DHT22;59073;51.994;4.448;2023-03-01T00:46:16;2.17;80.30
71291;DHT22;59073;51.994;4.448;2023-03-01T00:48:42;2.11;80.85
71291;DHT22;59073;51.994;4.448;2023-03-01T00:53:35;2.15;81.12
71291;DHT22;59073;51.994;4.448;2023-03-01T00:56:02;2.22;80.68
71291;DHT22;59073;51.994;4.448;2023-03-01T00:58:28;2.13;81.47
71291;DHT22;59073;51.994;4.448;2023-03-01T01:00:54;2.06;81.41
71291;DHT22;59073;51.994;4.448;2023-03-01T01:03:19;2.09;81.97
71291;DHT22;59073;51.994;4.448;2023-03-01T01:05:45;2.11;81.98
71291;DHT22;59073;51.994;4.448;2023-03-01T01:08:11;2.13;82.14
71291;DHT22;59073;51.994;4.448;2023-03-01T01:10:36;2.14;82.02
71291;DHT22;59073;51.994;4.448;2023-03-01T01:13:02;2.10;82.22
71291;DHT22;59073;51.994;4.448;2023-03-01T01:15:28;2.20;82.31
71291;DHT22;59073;51.994;4.448;2023-03-01T01:17:53;2.32;81.61
71291;DHT22;59073;51.994;4.448;2023-03-01T01:20:20;2.32;81.36
71291;DHT22;59073;51.994;4.448;2023-03-01T01:22:46;2.22;81.49
71291;DHT22;59073;51.994;4.448;2023-03-01T01:25:11;2.20;82.38
71291;DHT22;59073;51.994;4.448;2023-03-01T01:27:37;2.21;82.48
71291;DHT22;59073;51.994;4.448;2023-03-01T01:30:03;2.21;82.43
71291;DHT22;59073;51.994;4.448;2023-03-01T01:32:29;2.18;82.55
71291;DHT22;59073;51.994;4.448;2023-03-01T01:34:54;2.14;83.06
71291;DHT22;59073;51.994;4.448;2023-03-01T01:37:20;2.11;83.01
71291;DHT22;59073;51.994;4.448;2023-03-01T01:39:45;2.11;83.68
71291;DHT22;59073;51.994;4.448;2023-03-01T01:42:16;2.10;83.10
71291;DHT22;59073;51.994;4.448;2023-03-01T01:44:42;2.10;83.37
71291;DHT22;59073;51.994;4.448;2023-03-01T01:47:18;2.10;83.82
71291;DHT22;59073;51.994;4.448;2023-03-01T01:49:53;2.13;83.64
71291;DHT22;59073;51.994;4.448;2023-03-01T01:52:34;2.04;84.25
71291;DHT22;59073;51.994;4.448;2023-03-01T01:55:07;2.07;84.14
71291;DHT22;59073;51.994;4.448;2023-03-01T01:57:41;2.09;83.92
71291;DHT22;59073;51.994;4.448;2023-03-01T02:00:12;2.07;84.11
71291;DHT22;59073;51.994;4.448;2023-03-01T02:02:40;2.00;84.41
71291;DHT22;59073;51.994;4.448;2023-03-01T02:05:26;2.06;84.47
71291;DHT22;59073;51.994;4.448;2023-03-01T02:07:56;2.09;83.97
71291;DHT22;59073;51.994;4.448;2023-03-01T02:10:23;2.13;83.39
71291;DHT22;59073;51.994;4.448;2023-03-01T02:12:50;2.13;82.91
71291;DHT22;59073;51.994;4.448;2023-03-01T02:15:16;2.21;82.80
71291;DHT22;59073;51.994;4.448;2023-03-01T02:17:41;2.28;82.36
71291;DHT22;59073;51.994;4.448;2023-03-01T02:22:35;2.25;81.79
71291;DHT22;59073;51.994;4.448;2023-03-01T02:30:30;2.04;81.55
71291;DHT22;59073;51.994;4.448;2023-03-01T02:32:58;2.07;82.12
71291;DHT22;59073;51.994;4.448;2023-03-01T02:35:37;1.99;82.69
71291;DHT22;59073;51.994;4.448;2023-03-01T02:38:06;2.00;82.62
71291;DHT22;59073;51.994;4.448;2023-03-01T02:40:34;1.93;82.78
71291;DHT22;59073;51.994;4.448;2023-03-01T02:43:04;1.97;83.07
71291;DHT22;59073;51.994;4.448;2023-03-01T02:45:33;1.94;83.05
71291;DHT22;59073;51.994;4.448;2023-03-01T02:47:58;2.00;82.93
71291;DHT22;59073;51.994;4.448;2023-03-01T02:53:10;1.83;83.78
71291;DHT22;59073;51.994;4.448;2023-03-01T02:55:36;1.93;83.83
71291;DHT22;59073;51.994;4.448;2023-03-01T02:58:03;1.91;83.20
71291;DHT22;59073;51.994;4.448;2023-03-01T03:00:34;1.81;83.53
71291;DHT22;59073;51.994;4.448;2023-03-01T03:03:00;1.94;83.52
71291;DHT22;59073;51.994;4.448;2023-03-01T03:05:29;1.84;82.91
71291;DHT22;59073;51.994;4.448;2023-03-01T03:07:56;1.90;82.55
71291;DHT22;59073;51.994;4.448;2023-03-01T03:10:25;1.90;82.66
71291;DHT22;59073;51.994;4.448;2023-03-01T03:12:54;2.06;82.45
71291;DHT22;59073;51.994;4.448;2023-03-01T03:15:21;2.10;81.89
71291;DHT22;59073;51.994;4.448;2023-03-01T03:17:49;2.07;81.42
71291;DHT22;59073;51.994;4.448;2023-03-01T03:20:16;1.93;81.67
71291;DHT22;59073;51.994;4.448;2023-03-01T03:22:46;1.97;81.93
71291;DHT22;59073;51.994;4.448;2023-03-01T03:25:12;1.96;82.09
71291;DHT22;59073;51.994;4.448;2023-03-01T03:27:41;1.90;82.31
71291;DHT22;59073;51.994;4.448;2023-03-01T03:30:09;2.00;82.21
71291;DHT22;59073;51.994;4.448;2023-03-01T03:32:35;1.97;82.24
71291;DHT22;59073;51.994;4.448;2023-03-01T03:35:02;1.99;82.22
71291;DHT22;59073;51.994;4.448;2023-03-01T03:37:34;1.83;82.05
71291;DHT22;59073;51.994;4.448;2023-03-01T03:40:17;1.73;82.27
71291;DHT22;59073;51.994;4.448;2023-03-01T03:42:43;1.81;82.25
71291;DHT22;59073;51.994;4.448;2023-03-01T03:45:08;1.87;82.02
71291;DHT22;59073;51.994;4.448;2023-03-01T03:47:34;1.74;81.96
71291;DHT22;59073;51.994;4.448;2023-03-01T03:49:59;1.77;82.16
71291;DHT22;59073;51.994;4.448;2023-03-01T03:52:25;1.83;81.93
71291;DHT22;59073;51.994;4.448;2023-03-01T03:54:50;1.93;81.78
71291;DHT22;59073;51.994;4.448;2023-03-01T03:57:16;1.90;81.38
71291;DHT22;59073;51.994;4.448;2023-03-01T03:59:41;1.81;81.60
71291;DHT22;59073;51.994;4.448;2023-03-01T04:02:07;1.80;81.78
71291;DHT22;59073;51.994;4.448;2023-03-01T04:04:34;1.89;81.66
71291;DHT22;59073;51.994;4.448;2023-03-01T04:07:00;1.94;81.86
71291;DHT22;59073;51.994;4.448;2023-03-01T04:09:25;1.96;81.62
71291;DHT22;59073;51.994;4.448;2023-03-01T04:11:54;1.90;81.19
71291;DHT22;59073;51.994;4.448;2023-03-01T04:14:22;1.87;81.15
71291;DHT22;59073;51.994;4.448;2023-03-01T04:16:47;1.80;81.03
71291;DHT22;59073;51.994;4.448;2023-03-01T04:19:15;1.79;81.67
71291;DHT22;59073;51.994;4.448;2023-03-01T04:21:43;1.94;81.72
71291;DHT22;59073;51.994;4.448;2023-03-01T04:24:11;2.04;81.05
71291;DHT22;59073;51.994;4.448;2023-03-01T04:26:37;2.00;80.83
71291;DHT22;59073;51.994;4.448;2023-03-01T04:29:05;1.97;80.53
71291;DHT22;59073;51.994;4.448;2023-03-01T04:31:31;1.73;80.47
71291;DHT22;59073;51.994;4.448;2023-03-01T04:34:00;1.62;81.04
71291;DHT22;59073;51.994;4.448;2023-03-01T04:36:28;1.67;81.27
71291;DHT22;59073;51.994;4.448;2023-03-01T04:38:53;1.59;81.38
71291;DHT22;59073;51.994;4.448;2023-03-01T04:41:24;1.46;82.13
71291;DHT22;59073;51.994;4.448;2023-03-01T04:43:54;1.19;82.71
71291;DHT22;59073;51.994;4.448;2023-03-01T04:46:21;1.08;83.49
71291;DHT22;59073;51.994;4.448;2023-03-01T04:48:47;1.05;83.61
71291;DHT22;59073;51.994;4.448;2023-03-01T04:51:13;0.97;83.66
71291;DHT22;59073;51.994;4.448;2023-03-01T04:53:42;0.88;83.61
71291;DHT22;59073;51.994;4.448;2023-03-01T04:56:13;0.80;83.85
71291;DHT22;59073;51.994;4.448;2023-03-01T04:58:47;0.88;83.97
71291;DHT22;59073;51.994;4.448;2023-03-01T05:01:17;0.87;83.37
71291;DHT22;59073;51.994;4.448;2023-03-01T05:03:46;0.81;83.53
71291;DHT22;59073;51.994;4.448;2023-03-01T05:06:24;0.77;83.07
71291;DHT22;59073;51.994;4.448;2023-03-01T05:08:49;0.74;83.32
71291;DHT22;59073;51.994;4.448;2023-03-01T06:07:24;-0.21;79.24
71291;DHT22;59073;51.994;4.448;2023-03-01T06:09:45;-0.40;79.34
71291;DHT22;59073;51.994;4.448;2023-03-01T06:12:16;-0.39;79.77
71291;DHT22;59073;51.994;4.448;2023-03-01T06:14:42;-0.33;79.64
71291;DHT22;59073;51.994;4.448;2023-03-01T06:17:07;-0.28;79.81
71291;DHT22;59073;51.994;4.448;2023-03-01T06:19:33;-0.21;79.71
71291;DHT22;59073;51.994;4.448;2023-03-01T06:22:04;-0.23;79.45
71291;DHT22;59073;51.994;4.448;2023-03-01T06:24:37;-0.23;79.24
71291;DHT22;59073;51.994;4.448;2023-03-01T06:27:05;-0.29;79.11
71291;DHT22;59073;51.994;4.448;2023-03-01T06:29:30;-0.32;78.67
71291;DHT22;59073;51.994;4.448;2023-03-01T06:31:56;-0.36;78.28
71291;DHT22;59073;51.994;4.448;2023-03-01T06:35:03;-0.36;78.17
71291;DHT22;59073;51.994;4.448;2023-03-01T06:37:48;-0.43;78.28
71291;DHT22;59073;51.994;4.448;2023-03-01T06:40:36;-0.42;78.43
71291;DHT22;59073;51.994;4.448;2023-03-01T06:43:05;-0.37;78.46
71291;DHT22;59073;51.994;4.448;2023-03-01T06:45:40;-0.11;77.76
71291;DHT22;59073;51.994;4.448;2023-03-01T06:48:07;0.47;76.67
71291;DHT22;59073;51.994;4.448;2023-03-01T06:50:36;1.04;74.77
71291;DHT22;59073;51.994;4.448;2023-03-01T06:53:17;1.46;73.50
71291;DHT22;59073;51.994;4.448;2023-03-01T06:55:54;1.83;72.45
71291;DHT22;59073;51.994;4.448;2023-03-01T07:05:17;0.95;76.23
71291;DHT22;59073;51.994;4.448;2023-03-01T07:07:42;1.01;75.90
71291;DHT22;59073;51.994;4.448;2023-03-01T07:14:01;1.45;76.81
71291;DHT22;59073;51.994;4.448;2023-03-01T07:16:36;1.58;74.17
71291;DHT22;59073;51.994;4.448;2023-03-01T07:19:01;1.89;75.15
71291;DHT22;59073;51.994;4.448;2023-03-01T07:21:27;2.07;75.14
71291;DHT22;59073;51.994;4.448;2023-03-01T07:23:52;1.97;73.70
71291;DHT22;59073;51.994;4.448;2023-03-01T07:26:18;2.11;73.37
71291;DHT22;59073;51.994;4.448;2023-03-01T07:28:43;2.01;73.54
71291;DHT22;59073;51.994;4.448;2023-03-01T07:31:35;1.94;74.38
71291;DHT22;59073;51.994;4.448;2023-03-01T07:34:00;2.09;75.09
71291;DHT22;59073;51.994;4.448;2023-03-01T07:36:26;2.42;74.85
71291;DHT22;59073;51.994;4.448;2023-03-01T07:38:51;2.25;71.76
71291;DHT22;59073;51.994;4.448;2023-03-01T07:41:17;2.10;72.65
71291;DHT22;59073;51.994;4.448;2023-03-01T07:43:43;2.00;72.90
71291;DHT22;59073;51.994;4.448;2023-03-01T07:46:09;1.93;73.73
71291;DHT22;59073;51.994;4.448;2023-03-01T07:48:34;1.93;74.62
71291;DHT22;59073;51.994;4.448;2023-03-01T07:51:04;2.00;77.00
71291;DHT22;59073;51.994;4.448;2023-03-01T07:53:32;2.38;77.35
71291;DHT22;59073;51.994;4.448;2023-03-01T07:56:09;2.59;77.49
71291;DHT22;59073;51.994;4.448;2023-03-01T07:58:36;2.62;78.05
71291;DHT22;59073;51.994;4.448;2023-03-01T08:01:22;2.75;78.29
71291;DHT22;59073;51.994;4.448;2023-03-01T08:03:53;2.82;78.87
71291;DHT22;59073;51.994;4.448;2023-03-01T08:06:19;2.93;78.67
71291;DHT22;59073;51.994;4.448;2023-03-01T08:08:45;3.06;78.85
71291;DHT22;59073;51.994;4.448;2023-03-01T08:11:12;3.13;77.68
71291;DHT22;59073;51.994;4.448;2023-03-01T08:13:38;3.40;77.68
71291;DHT22;59073;51.994;4.448;2023-03-01T08:16:07;3.20;77.22
71291;DHT22;59073;51.994;4.448;2023-03-01T08:18:33;3.27;77.91
71291;DHT22;59073;51.994;4.448;2023-03-01T09:19:30;6.31;63.00
71291;DHT22;59073;51.994;4.448;2023-03-01T09:22:04;5.98;62.79
71291;DHT22;59073;51.994;4.448;2023-03-01T09:24:32;6.15;62.71
71291;DHT22;59073;51.994;4.448;2023-03-01T09:30:49;6.38;61.62
71291;DHT22;59073;51.994;4.448;2023-03-01T09:33:33;6.41;60.19
71291;DHT22;59073;51.994;4.448;2023-03-01T09:36:26;7.01;60.74
71291;DHT22;59073;51.994;4.448;2023-03-01T09:43:37;6.42;59.26
71291;DHT22;59073;51.994;4.448;2023-03-01T09:46:37;6.69;59.31
71291;DHT22;59073;51.994;4.448;2023-03-01T09:49:17;6.56;57.46
71291;DHT22;59073;51.994;4.448;2023-03-01T09:54:58;6.65;60.45
71291;DHT22;59073;51.994;4.448;2023-03-01T10:04:51;6.69;57.89
71291;DHT22;59073;51.994;4.448;2023-03-01T10:51:23;7.26;53.79
71291;DHT22;59073;51.994;4.448;2023-03-01T10:54:28;7.06;53.17
71291;DHT22;59073;51.994;4.448;2023-03-01T10:56:56;7.00;55.84
71291;DHT22;59073;51.994;4.448;2023-03-01T10:59:54;7.08;56.10
71291;DHT22;59073;51.994;4.448;2023-03-01T11:12:43;7.26;56.33
71291;DHT22;59073;51.994;4.448;2023-03-01T11:18:58;7.52;56.06
71291;DHT22;59073;51.994;4.448;2023-03-01T11:24:22;6.75;56.03
71291;DHT22;59073;51.994;4.448;2023-03-01T11:26:55;6.79;54.42
71291;DHT22;59073;51.994;4.448;2023-03-01T11:32:02;7.03;52.66
71291;DHT22;59073;51.994;4.448;2023-03-01T11:34:58;6.96;55.25
71291;DHT22;59073;51.994;4.448;2023-03-01T11:37:44;6.62;56.01
71291;DHT22;59073;51.994;4.448;2023-03-01T11:40:46;7.13;56.60
71291;DHT22;59073;51.994;4.448;2023-03-01T11:56:37;7.14;54.33
71291;DHT22;59073;51.994;4.448;2023-03-01T12:07:25;6.93;53.31
71291;DHT22;59073;51.994;4.448;2023-03-01T12:12:59;7.24;55.29
71291;DHT22;59073;51.994;4.448;2023-03-01T12:15:53;7.20;55.24
71291;DHT22;59073;51.994;4.448;2023-03-01T12:18:52;7.43;54.23
71291;DHT22;59073;51.994;4.448;2023-03-01T12:21:30;7.44;56.06
71291;DHT22;59073;51.994;4.448;2023-03-01T12:29:58;7.45;55.31
71291;DHT22;59073;51.994;4.448;2023-03-01T12:51:40;7.81;52.56
71291;DHT22;59073;51.994;4.448;2023-03-01T12:54:49;7.57;53.98
71291;DHT22;59073;51.994;4.448;2023-03-01T13:31:04;7.69;53.22
71291;DHT22;59073;51.994;4.448;2023-03-01T15:28:03;7.65;49.83
71291;DHT22;59073;51.994;4.448;2023-03-01T15:42:50;7.78;48.45
71291;DHT22;59073;51.994;4.448;2023-03-01T15:56:04;7.74;53.47
71291;DHT22;59073;51.994;4.448;2023-03-01T16:22:56;7.26;54.45
71291;DHT22;59073;51.994;4.448;2023-03-01T16:25:25;7.20;53.76
71291;DHT22;59073;51.994;4.448;2023-03-01T16:27:54;7.34;54.66
71291;DHT22;59073;51.994;4.448;2023-03-01T16:30:27;7.28;54.85
71291;DHT22;59073;51.994;4.448;2023-03-01T16:32:55;7.24;53.96
71291;DHT22;59073;51.994;4.448;2023-03-01T16:45:01;7.11;54.51
71291;DHT22;59073;51.994;4.448;2023-03-01T16:54:55;7.14;54.49
71291;DHT22;59073;51.994;4.448;2023-03-01T17:06:06;6.82;55.67
71291;DHT22;59073;51.994;4.448;2023-03-01T17:08:35;6.68;55.85
71291;DHT22;59073;51.994;4.448;2023-03-01T17:14:32;6.59;56.63
71291;DHT22;59073;51.994;4.448;2023-03-01T17:16:57;6.48;56.62
71291;DHT22;59073;51.994;4.448;2023-03-01T17:19:23;6.56;56.82
71291;DHT22;59073;51.994;4.448;2023-03-01T17:21:48;6.61;56.79
71291;DHT22;59073;51.994;4.448;2023-03-01T17:24:16;6.44;56.75
71291;DHT22;59073;51.994;4.448;2023-03-01T17:26:44;6.38;57.61
71291;DHT22;59073;51.994;4.448;2023-03-01T17:56:41;6.00;60.19
71291;DHT22;59073;51.994;4.448;2023-03-01T17:59:23;5.86;60.07
71291;DHT22;59073;51.994;4.448;2023-03-01T18:01:52;5.84;60.37
71291;DHT22;59073;51.994;4.448;2023-03-01T18:04:18;5.89;60.48
71291;DHT22;59073;51.994;4.448;2023-03-01T18:06:44;5.80;60.13
71291;DHT22;59073;51.994;4.448;2023-03-01T18:09:12;5.73;60.38
71291;DHT22;59073;51.994;4.448;2023-03-01T18:11:43;5.62;60.83
71291;DHT22;59073;51.994;4.448;2023-03-01T18:14:25;5.66;61.12
71291;DHT22;59073;51.994;4.448;2023-03-01T18:16:59;5.66;61.09
71291;DHT22;59073;51.994;4.448;2023-03-01T18:19:26;5.64;61.17
71291;DHT22;59073;51.994;4.448;2023-03-01T18:25:21;5.63;61.18
71291;DHT22;59073;51.994;4.448;2023-03-01T18:31:41;5.55;61.39
71291;DHT22;59073;51.994;4.448;2023-03-01T18:34:36;5.57;61.21
71291;DHT22;59073;51.994;4.448;2023-03-01T18:37:07;5.49;61.68
71291;DHT22;59073;51.994;4.448;2023-03-01T18:39:38;5.29;62.30
71291;DHT22;59073;51.994;4.448;2023-03-01T18:42:06;5.42;62.19
71291;DHT22;59073;51.994;4.448;2023-03-01T18:45:15;5.25;62.72
71291;DHT22;59073;51.994;4.448;2023-03-01T18:47:49;5.19;62.82
71291;DHT22;59073;51.994;4.448;2023-03-01T18:50:27;5.31;62.60
71291;DHT22;59073;51.994;4.448;2023-03-01T18:52:57;5.19;62.93
71291;DHT22;59073;51.994;4.448;2023-03-01T18:55:37;5.09;63.39
71291;DHT22;59073;51.994;4.448;2023-03-01T18:58:46;4.89;64.32
71291;DHT22;59073;51.994;4.448;2023-03-01T19:01:22;4.92;64.27
71291;DHT22;59073;51.994;4.448;2023-03-01T19:04:14;4.96;64.04
71291;DHT22;59073;51.994;4.448;2023-03-01T19:06:46;4.88;64.36
71291;DHT22;59073;51.994;4.448;2023-03-01T19:09:25;4.89;64.83
71291;DHT22;59073;51.994;4.448;2023-03-01T19:11:59;4.94;64.39
71291;DHT22;59073;51.994;4.448;2023-03-01T19:14:27;4.91;64.48
71291;DHT22;59073;51.994;4.448;2023-03-01T19:16:56;5.01;64.41
71291;DHT22;59073;51.994;4.448;2023-03-01T19:19:27;4.94;64.31
71291;DHT22;59073;51.994;4.448;2023-03-01T19:22:01;4.98;64.36
71291;DHT22;59073;51.994;4.448;2023-03-01T19:24:29;4.89;64.67
71291;DHT22;59073;51.994;4.448;2023-03-01T19:30:01;4.70;65.61
71291;DHT22;59073;51.994;4.448;2023-03-01T19:32:27;4.67;66.01
71291;DHT22;59073;51.994;4.448;2023-03-01T19:34:53;4.71;65.62
71291;DHT22;59073;51.994;4.448;2023-03-01T19:37:18;4.58;66.24
71291;DHT22;59073;51.994;4.448;2023-03-01T19:39:46;4.60;66.29
71291;DHT22;59073;51.994;4.448;2023-03-01T19:42:13;4.65;66.14
71291;DHT22;59073;51.994;4.448;2023-03-01T19:44:38;4.64;66.35
71291;DHT22;59073;51.994;4.448;2023-03-01T19:47:04;4.63;66.53
71291;DHT22;59073;51.994;4.448;2023-03-01T19:49:29;4.60;66.57
71291;DHT22;59073;51.994;4.448;2023-03-01T19:51:56;4.65;66.56
71291;DHT22;59073;51.994;4.448;2023-03-01T19:54:21;4.65;66.33
71291;DHT22;59073;51.994;4.448;2023-03-01T19:57:07;4.58;66.68
71291;DHT22;59073;51.994;4.448;2023-03-01T19:59:40;4.47;67.34
71291;DHT22;59073;51.994;4.448;2023-03-01T20:02:05;4.34;68.19
71291;DHT22;59073;51.994;4.448;2023-03-01T20:04:31;4.37;67.99
71291;DHT22;59073;51.994;4.448;2023-03-01T20:06:56;4.30;68.11
71291;DHT22;59073;51.994;4.448;2023-03-01T20:09:22;4.26;68.34
71291;DHT22;59073;51.994;4.448;2023-03-01T20:11:47;4.03;69.38
71291;DHT22;59073;51.994;4.448;2023-03-01T20:14:13;4.06;69.23
71291;DHT22;59073;51.994;4.448;2023-03-01T20:16:41;4.12;68.91
71291;DHT22;59073;51.994;4.448;2023-03-01T20:19:07;4.16;69.00
71291;DHT22;59073;51.994;4.448;2023-03-01T20:21:32;3.99;69.57
71291;DHT22;59073;51.994;4.448;2023-03-01T20:23:59;3.93;69.96
71291;DHT22;59073;51.994;4.448;2023-03-01T20:26:26;4.05;69.48
71291;DHT22;59073;51.994;4.448;2023-03-01T20:28:54;4.03;69.22
71291;DHT22;59073;51.994;4.448;2023-03-01T20:31:23;4.07;69.31
71291;DHT22;59073;51.994;4.448;2023-03-01T20:34:04;4.02;69.34
71291;DHT22;59073;51.994;4.448;2023-03-01T20:36:33;4.03;69.61
71291;DHT22;59073;51.994;4.448;2023-03-01T20:39:22;3.95;69.81
71291;DHT22;59073;51.994;4.448;2023-03-01T20:41:50;3.96;70.06
71291;DHT22;59073;51.994;4.448;2023-03-01T20:44:24;4.02;69.31
71291;DHT22;59073;51.994;4.448;2023-03-01T20:46:52;3.93;69.56
71291;DHT22;59073;51.994;4.448;2023-03-01T20:49:18;3.92;69.82
71291;DHT22;59073;51.994;4.448;2023-03-01T20:51:44;3.95;69.76
71291;DHT22;59073;51.994;4.448;2023-03-01T20:54:10;3.82;69.99
71291;DHT22;59073;51.994;4.448;2023-03-01T20:56:35;3.72;70.67
71291;DHT22;59073;51.994;4.448;2023-03-01T20:59:03;3.61;71.04
71291;DHT22;59073;51.994;4.448;2023-03-01T21:01:29;3.58;71.33
71291;DHT22;59073;51.994;4.448;2023-03-01T21:03:54;3.61;71.52
71291;DHT22;59073;51.994;4.448;2023-03-01T21:06:20;3.60;71.37
71291;DHT22;59073;51.994;4.448;2023-03-01T21:08:45;3.60;71.05
71291;DHT22;59073;51.994;4.448;2023-03-01T21:11:11;3.67;70.93
71291;DHT22;59073;51.994;4.448;2023-03-01T21:13:36;3.53;71.22
71291;DHT22;59073;51.994;4.448;2023-03-01T21:16:03;3.41;71.76
71291;DHT22;59073;51.994;4.448;2023-03-01T21:18:30;3.35;72.05
71291;DHT22;59073;51.994;4.448;2023-03-01T21:20:58;3.28;72.52
71291;DHT22;59073;51.994;4.448;2023-03-01T21:23:24;3.24;72.96
71291;DHT22;59073;51.994;4.448;2023-03-01T21:28:25;3.19;73.25
71291;DHT22;59073;51.994;4.448;2023-03-01T21:30:53;3.38;72.61
71291;DHT22;59073;51.994;4.448;2023-03-01T21:33:18;3.30;72.55
71291;DHT22;59073;51.994;4.448;2023-03-01T21:35:44;3.38;72.15
71291;DHT22;59073;51.994;4.448;2023-03-01T21:38:09;3.44;72.14
71291;DHT22;59073;51.994;4.448;2023-03-01T21:40:36;3.31;72.26
71291;DHT22;59073;51.994;4.448;2023-03-01T21:43:01;3.26;73.12
71291;DHT22;59073;51.994;4.448;2023-03-01T21:45:26;3.23;73.27
71291;DHT22;59073;51.994;4.448;2023-03-01T21:47:52;3.16;73.99
71291;DHT22;59073;51.994;4.448;2023-03-01T21:50:17;3.06;74.36
71291;DHT22;59073;51.994;4.448;2023-03-01T21:52:43;3.16;74.00
71291;DHT22;59073;51.994;4.448;2023-03-01T21:55:09;3.14;73.94
71291;DHT22;59073;51.994;4.448;2023-03-01T21:57:34;3.17;73.60
71291;DHT22;59073;51.994;4.448;2023-03-01T22:00:08;3.19;73.79
71291;DHT22;59073;51.994;4.448;2023-03-01T22:02:34;3.20;73.69
71291;DHT22;59073;51.994;4.448;2023-03-01T22:04:59;3.26;73.35
71291;DHT22;59073;51.994;4.448;2023-03-01T22:07:25;3.09;74.17
71291;DHT22;59073;51.994;4.448;2023-03-01T22:09:50;3.04;74.40
71291;DHT22;59073;51.994;4.448;2023-03-01T22:12:16;3.13;74.38
71291;DHT22;59073;51.994;4.448;2023-03-01T22:14:41;3.10;74.33
71291;DHT22;59073;51.994;4.448;2023-03-01T22:17:08;3.10;74.31
71291;DHT22;59073;51.994;4.448;2023-03-01T22:19:33;3.17;73.88
71291;DHT22;59073;51.994;4.448;2023-03-01T22:21:59;3.16;73.87
71291;DHT22;59073;51.994;4.448;2023-03-01T22:24:24;3.21;73.44
71291;DHT22;59073;51.994;4.448;2023-03-01T22:26:52;3.24;73.22
71291;DHT22;59073;51.994;4.448;2023-03-01T22:29:27;3.21;73.12
71291;DHT22;59073;51.994;4.448;2023-03-01T22:31:55;3.21;72.88
71291;DHT22;59073;51.994;4.448;2023-03-01T22:34:21;3.24;72.82
71291;DHT22;59073;51.994;4.448;2023-03-01T22:36:47;3.23;72.59
71291;DHT22;59073;51.994;4.448;2023-03-01T22:39:14;3.20;72.72
71291;DHT22;59073;51.994;4.448;2023-03-01T22:41:42;3.07;72.78
71291;DHT22;59073;51.994;4.448;2023-03-01T22:44:14;3.12;72.71
71291;DHT22;59073;51.994;4.448;2023-03-01T22:46:41;3.16;72.65
71291;DHT22;59073;51.994;4.448;2023-03-01T22:49:07;3.13;72.73
71291;DHT22;59073;51.994;4.448;2023-03-01T22:51:36;3.06;72.79
71291;DHT22;59073;51.994;4.448;2023-03-01T22:54:02;3.16;72.24
71291;DHT22;59073;51.994;4.448;2023-03-01T22:56:32;3.14;72.39
71291;DHT22;59073;51.994;4.448;2023-03-01T22:59:05;3.26;71.74
71291;DHT22;59073;51.994;4.448;2023-03-01T23:01:33;3.28;71.95
71291;DHT22;59073;51.994;4.448;2023-03-01T23:03:58;3.23;71.93
71291;DHT22;59073;51.994;4.448;2023-03-01T23:06:23;3.23;71.84
71291;DHT22;59073;51.994;4.448;2023-03-01T23:08:52;3.21;72.30
71291;DHT22;59073;51.994;4.448;2023-03-01T23:11:19;3.30;71.71
71291;DHT22;59073;51.994;4.448;2023-03-01T23:13:45;3.28;71.64
71291;DHT22;59073;51.994;4.448;2023-03-01T23:16:12;3.35;71.32
71291;DHT22;59073;51.994;4.448;2023-03-01T23:18:38;3.31;71.56
71291;DHT22;59073;51.994;4.448;2023-03-01T23:21:21;3.31;71.83
71291;DHT22;59073;51.994;4.448;2023-03-01T23:23:47;3.40;71.48
71291;DHT22;59073;51.994;4.448;2023-03-01T23:26:14;3.38;71.67
71291;DHT22;59073;51.994;4.448;2023-03-01T23:28:40;3.33;72.06
71291;DHT22;59073;51.994;4.448;2023-03-01T23:31:10;3.19;72.40
71291;DHT22;59073;51.994;4.448;2023-03-01T23:33:35;3.27;72.61
71291;DHT22;59073;51.994;4.448;2023-03-01T23:36:06;3.27;72.73
71291;DHT22;59073;51.994;4.448;2023-03-01T23:38:31;3.16;73.63
71291;DHT22;59073;51.994;4.448;2023-03-01T23:40:57;3.20;73.86
71291;DHT22;59073;51.994;4.448;2023-03-01T23:43:23;3.26;73.83
71291;DHT22;59073;51.994;4.448;2023-03-01T23:45:51;3.33;73.71
71291;DHT22;59073;51.994;4.448;2023-03-01T23:48:17;3.37;73.24
71291;DHT22;59073;51.994;4.448;2023-03-01T23:50:44;3.34;73.39
71291;DHT22;59073;51.994;4.448;2023-03-01T23:53:16;3.23;74.18
71291;DHT22;59073;51.994;4.448;2023-03-01T23:55:49;3.27;74.21
71291;DHT22;59073;51.994;4.448;2023-03-01T23:58:16;3.21;74.70
